Canby, California
Current Conditions -  °F | °C
As of 7:55 AM on Friday 19 Dec 2014 (Local Time) from KAAT Reporting Station
Overcast Overcast  
Wind Chill: 30°   Ceiling: 2300
Heat Index: 37°   Visibility: 10mi
Dew Point: 34°   Wind: 9mph
Humidity: 89%   Direction: 170°S
Pressure: 30.03"   Gusts: NA
Location:  41.44°N, 120.87°W
Report Text: KAAT 191555Z AUTO 17008KT 10SM BKN023 OVC031 03/01 A3003 RMK AO2 UPE37RAB14E27 SLP172 P0001 T00280011
Loading
Personal Weather Stations






























Interactive Weather Map New forecast layout! Learn more

10-Day Weather Forecast

Advertisements
Track Severe Weather on mobile